Time;durP1;ratioP1;P1;durP2;ratioP2;P2;SDS_P1;SDS_P2;PMS_P1;PMS_P2;Temp;Humidity;BMP_temperature;BMP_pressure;BME280_temperature;BME280_humidity;BME280_pressure;Samples;Min_cycle;Max_cycle;Signal;HPM_P1;HPM_P2
2022/03/29 00:02:07;;;;;;;42.00;26.07;;;9.60;99.90;;;;;;5049745;28;20220;-51
2022/03/29 00:04:36;;;;;;;39.50;25.10;;;9.50;99.90;;;;;;5049353;28;20202;-50
2022/03/29 00:07:04;;;;;;;41.87;25.53;;;9.50;99.90;;;;;;5051064;28;20217;-51
2022/03/29 00:09:33;;;;;;;42.70;25.40;;;9.50;99.90;;;;;;5050182;28;20226;-50
2022/03/29 00:12:02;;;;;;;42.63;25.90;;;9.50;99.90;;;;;;5050318;28;20591;-51
2022/03/29 00:14:30;;;;;;;41.27;25.17;;;9.50;99.90;;;;;;5050706;28;20212;-51
2022/03/29 00:16:58;;;;;;;46.97;26.87;;;9.40;99.90;;;;;;5050807;28;20213;-51
2022/03/29 00:19:26;;;;;;;46.50;26.20;;;9.40;99.90;;;;;;5050458;28;20225;-51
2022/03/29 00:21:54;;;;;;;44.47;26.97;;;9.40;99.90;;;;;;5050156;28;20261;-51
2022/03/29 00:24:22;;;;;;;42.40;25.23;;;9.40;99.90;;;;;;5050761;28;20202;-51
2022/03/29 00:26:52;;;;;;;45.17;26.33;;;9.40;99.90;;;;;;5050356;28;20728;-51
2022/03/29 00:29:20;;;;;;;45.07;26.90;;;9.30;99.90;;;;;;5050322;28;20264;-51
2022/03/29 00:31:48;;;;;;;44.93;26.03;;;9.30;99.90;;;;;;5049796;28;20271;-51
2022/03/29 00:34:16;;;;;;;42.73;25.63;;;9.30;99.90;;;;;;5050441;28;20208;-52
2022/03/29 00:36:44;;;;;;;45.77;26.53;;;9.30;99.90;;;;;;5050402;28;20674;-51
2022/03/29 00:39:12;;;;;;;46.53;27.53;;;9.20;99.90;;;;;;5050448;28;20280;-51
2022/03/29 00:41:40;;;;;;;47.97;27.33;;;9.20;99.90;;;;;;5050263;28;20744;-51
2022/03/29 00:44:10;;;;;;;46.07;26.93;;;9.20;99.90;;;;;;5049529;28;20279;-51
2022/03/29 00:46:39;;;;;;;42.40;26.30;;;9.10;99.90;;;;;;5050443;28;20243;-50
2022/03/29 00:49:07;;;;;;;42.90;26.73;;;9.10;99.90;;;;;;5050135;28;20233;-51
2022/03/29 00:51:36;;;;;;;52.57;28.33;;;9.10;99.90;;;;;;5049932;28;20674;-51
2022/03/29 00:54:04;;;;;;;46.43;26.10;;;9.10;99.90;;;;;;5049598;28;20243;-51
2022/03/29 00:56:33;;;;;;;41.77;26.03;;;9.10;99.90;;;;;;5050369;28;20209;-51
2022/03/29 00:59:01;;;;;;;46.63;27.30;;;9.10;99.90;;;;;;5049405;28;20251;-52
2022/03/29 01:01:31;;;;;;;48.70;26.83;;;9.10;99.90;;;;;;5049970;28;20283;-52
2022/03/29 01:03:59;;;;;;;42.60;25.77;;;9.00;99.90;;;;;;5051294;28;20202;-51
2022/03/29 01:06:27;;;;;;;49.03;27.27;;;9.00;99.90;;;;;;5052819;28;20244;-51
2022/03/29 01:08:56;;;;;;;42.97;26.77;;;8.90;99.90;;;;;;5053690;28;20217;-51
2022/03/29 01:11:24;;;;;;;49.47;26.53;;;9.00;99.90;;;;;;5053450;28;20217;-51
2022/03/29 01:13:53;;;;;;;44.50;26.87;;;9.00;99.90;;;;;;5052941;28;20207;-51
2022/03/29 01:19:12;;;;;;;40.33;24.80;;;9.00;99.90;;;;;;5053748;28;20233;-51
2022/03/29 01:21:42;;;;;;;41.67;26.80;;;9.00;99.90;;;;;;5053033;28;20703;-51
2022/03/29 01:24:13;;;;;;;41.20;25.50;;;9.00;99.90;;;;;;5053504;28;20209;-51
2022/03/29 01:26:42;;;;;;;45.57;25.93;;;8.90;99.90;;;;;;5053760;28;20259;-51
2022/03/29 01:29:10;;;;;;;44.63;26.43;;;8.90;99.90;;;;;;5051994;28;20231;-51
2022/03/29 01:31:39;;;;;;;41.27;26.17;;;8.80;99.90;;;;;;5052978;28;20888;-51
2022/03/29 01:34:08;;;;;;;43.17;25.83;;;8.80;99.90;;;;;;5052762;28;20707;-51
2022/03/29 01:36:36;;;;;;;47.20;27.40;;;8.80;99.90;;;;;;5053063;28;20266;-51
2022/03/29 01:39:04;;;;;;;42.93;27.47;;;8.70;99.90;;;;;;5052869;28;20519;-51
2022/03/29 01:41:34;;;;;;;41.07;25.97;;;8.70;99.90;;;;;;5052085;28;20201;-51
2022/03/29 01:44:02;;;;;;;41.80;25.23;;;8.70;99.90;;;;;;5052599;28;20283;-51
2022/03/29 01:46:30;;;;;;;44.53;26.47;;;8.70;99.90;;;;;;5052822;28;20206;-51
2022/03/29 01:48:59;;;;;;;44.00;26.53;;;8.60;99.90;;;;;;5053217;28;20256;-51
2022/03/29 01:51:27;;;;;;;44.90;26.40;;;8.60;99.90;;;;;;5052575;28;20225;-51
2022/03/29 01:53:58;;;;;;;47.00;26.43;;;8.60;99.90;;;;;;5052762;28;20252;-52
2022/03/29 01:56:27;;;;;;;44.90;27.40;;;8.60;99.90;;;;;;5052635;28;20601;-51
2022/03/29 01:58:57;;;;;;;44.10;25.67;;;8.50;99.90;;;;;;5052818;28;20221;-51
2022/03/29 02:01:25;;;;;;;46.43;27.33;;;8.50;99.90;;;;;;5052450;28;20210;-51
2022/03/29 02:03:53;;;;;;;42.13;25.57;;;8.50;99.90;;;;;;5052269;28;20652;-51
2022/03/29 02:06:21;;;;;;;43.07;26.17;;;8.50;99.90;;;;;;5052050;28;20630;-51
2022/03/29 02:08:49;;;;;;;48.57;27.13;;;8.50;99.90;;;;;;5052772;28;20226;-51
2022/03/29 02:11:18;;;;;;;42.50;25.20;;;8.50;99.90;;;;;;5052797;28;20221;-52
2022/03/29 02:13:47;;;;;;;42.87;26.60;;;8.60;99.90;;;;;;5052076;28;20209;-51
2022/03/29 02:16:16;;;;;;;44.20;27.17;;;8.60;99.90;;;;;;5051539;28;20554;-51
2022/03/29 02:18:44;;;;;;;43.07;25.73;;;8.60;99.90;;;;;;5051624;28;20965;-51
2022/03/29 02:21:14;;;;;;;43.97;25.80;;;8.60;99.90;;;;;;5051940;28;20729;-51
2022/03/29 02:23:43;;;;;;;38.53;24.67;;;8.50;99.90;;;;;;5051645;28;20205;-51
2022/03/29 02:26:11;;;;;;;42.00;25.43;;;8.40;99.90;;;;;;5052314;28;20210;-52
2022/03/29 02:28:39;;;;;;;43.90;26.80;;;8.40;99.90;;;;;;5051898;28;20237;-53
2022/03/29 02:31:07;;;;;;;40.43;25.07;;;8.40;99.90;;;;;;5051001;28;20229;-51
2022/03/29 02:33:37;;;;;;;41.87;26.60;;;8.40;99.90;;;;;;5051917;28;20220;-50
2022/03/29 02:36:06;;;;;;;46.17;26.57;;;8.40;99.90;;;;;;5051256;28;20590;-51
2022/03/29 02:38:34;;;;;;;40.93;25.70;;;8.30;99.90;;;;;;5051985;28;20230;-51
2022/03/29 02:41:02;;;;;;;40.50;24.70;;;8.30;99.90;;;;;;5051981;28;20206;-51
2022/03/29 02:43:30;;;;;;;46.43;25.97;;;8.30;99.90;;;;;;5050972;28;20628;-51
2022/03/29 02:45:58;;;;;;;41.10;25.50;;;8.30;99.90;;;;;;5049977;28;20201;-51
2022/03/29 02:48:26;;;;;;;37.53;23.83;;;8.30;99.90;;;;;;5052065;28;20229;-51
2022/03/29 02:50:56;;;;;;;42.37;25.20;;;8.30;99.90;;;;;;5051390;28;20225;-51
2022/03/29 02:53:24;;;;;;;41.43;26.10;;;8.40;99.90;;;;;;5051198;28;20213;-51
2022/03/29 02:55:52;;;;;;;41.53;25.73;;;8.40;99.90;;;;;;5051513;28;20213;-51
2022/03/29 02:58:21;;;;;;;43.80;26.27;;;8.40;99.90;;;;;;5051446;28;20801;-51
2022/03/29 03:00:51;;;;;;;45.20;24.80;;;8.50;99.90;;;;;;5051668;28;20670;-51
2022/03/29 03:03:20;;;;;;;37.83;23.77;;;8.40;99.90;;;;;;5051250;28;20240;-51
2022/03/29 03:05:48;;;;;;;40.80;25.13;;;8.50;99.90;;;;;;5051373;28;20568;-51
2022/03/29 03:08:17;;;;;;;41.77;25.57;;;8.50;99.90;;;;;;5051088;28;20697;-51
2022/03/29 03:10:46;;;;;;;41.17;25.00;;;8.50;99.90;;;;;;5051182;28;20217;-51
2022/03/29 03:13:14;;;;;;;38.57;23.80;;;8.40;99.90;;;;;;5051062;28;20259;-51
2022/03/29 03:15:42;;;;;;;40.27;24.87;;;8.40;99.90;;;;;;5051412;28;20327;-51
2022/03/29 03:18:11;;;;;;;42.10;24.27;;;8.20;99.90;;;;;;5051236;28;20272;-51
2022/03/29 03:20:39;;;;;;;44.60;25.20;;;8.20;99.90;;;;;;5050930;28;20201;-51
2022/03/29 03:23:07;;;;;;;41.60;24.00;;;8.10;99.90;;;;;;5050589;28;20744;-52
2022/03/29 03:25:38;;;;;;;44.50;24.90;;;8.10;99.90;;;;;;5050369;28;20206;-51
2022/03/29 03:28:06;;;;;;;40.37;24.93;;;8.10;99.90;;;;;;5050442;28;20221;-51
2022/03/29 03:30:35;;;;;;;39.23;23.47;;;8.20;99.90;;;;;;5049820;28;20222;-51
2022/03/29 03:33:03;;;;;;;40.53;24.03;;;8.20;99.90;;;;;;5050684;28;20202;-51
2022/03/29 03:35:31;;;;;;;35.97;23.13;;;8.20;99.90;;;;;;5050586;28;20259;-51
2022/03/29 03:38:00;;;;;;;40.67;23.93;;;8.20;99.90;;;;;;5050646;28;20213;-52
2022/03/29 03:40:28;;;;;;;42.90;24.43;;;8.20;99.90;;;;;;5050844;28;20251;-51
2022/03/29 03:42:57;;;;;;;43.67;25.73;;;8.20;99.90;;;;;;5050103;28;20202;-51
2022/03/29 03:45:25;;;;;;;40.87;25.67;;;8.10;99.90;;;;;;5051087;28;20201;-51
2022/03/29 03:47:54;;;;;;;43.00;25.27;;;8.10;99.90;;;;;;5050621;28;20215;-51
2022/03/29 03:50:22;;;;;;;41.20;24.50;;;8.10;99.90;;;;;;5049858;28;20251;-51
2022/03/29 03:52:52;;;;;;;40.60;24.23;;;8.10;99.90;;;;;;5050252;28;20205;-51
2022/03/29 03:55:20;;;;;;;37.37;22.93;;;8.10;99.90;;;;;;5050950;28;20263;-51
2022/03/29 03:57:48;;;;;;;36.63;23.13;;;8.10;99.90;;;;;;5051250;28;20209;-51
2022/03/29 04:00:21;;;;;;;36.87;22.90;;;8.10;99.90;;;;;;5050752;28;20206;-51
2022/03/29 04:02:50;;;;;;;40.27;23.73;;;8.10;99.90;;;;;;5050296;28;20245;-51
2022/03/29 04:05:19;;;;;;;40.37;23.70;;;8.10;99.90;;;;;;5050779;28;20217;-51
2022/03/29 04:07:47;;;;;;;36.73;22.10;;;8.10;99.90;;;;;;5050828;28;20210;-51
2022/03/29 04:10:15;;;;;;;40.30;22.57;;;8.10;99.90;;;;;;5050545;28;20213;-51
2022/03/29 04:12:43;;;;;;;36.00;23.33;;;8.00;99.90;;;;;;5050495;28;20283;-51
2022/03/29 04:15:12;;;;;;;37.03;22.60;;;8.00;99.90;;;;;;5050120;28;20206;-51
2022/03/29 04:17:41;;;;;;;37.23;22.63;;;8.00;99.90;;;;;;5050936;28;20206;-51
2022/03/29 04:20:11;;;;;;;37.53;21.93;;;8.00;99.90;;;;;;5050360;28;20274;-51
2022/03/29 04:22:39;;;;;;;34.70;20.70;;;8.00;99.90;;;;;;5049951;28;20206;-51
2022/03/29 04:25:08;;;;;;;35.67;21.20;;;8.00;99.90;;;;;;5050542;28;20260;-51
2022/03/29 04:27:36;;;;;;;35.17;21.63;;;7.90;99.90;;;;;;5050092;28;20206;-51
2022/03/29 04:30:05;;;;;;;29.43;20.57;;;7.90;99.90;;;;;;5049360;28;20226;-51
2022/03/29 04:32:37;;;;;;;35.97;21.60;;;8.00;99.90;;;;;;5049621;28;20221;-51
2022/03/29 04:35:07;;;;;;;33.00;22.17;;;8.00;99.90;;;;;;5050724;28;20247;-51
2022/03/29 04:37:35;;;;;;;30.73;21.50;;;8.10;99.90;;;;;;5050859;28;20205;-51
2022/03/29 04:40:08;;;;;;;32.37;21.47;;;8.00;99.90;;;;;;5053219;28;20638;-52
2022/03/29 04:42:44;;;;;;;33.20;20.67;;;8.10;99.90;;;;;;5046893;28;20220;-51
2022/03/29 04:45:12;;;;;;;36.57;21.13;;;8.00;99.90;;;;;;5034083;28;20209;-51
2022/03/29 04:47:41;;;;;;;33.00;20.60;;;8.00;99.90;;;;;;5034290;28;20210;-51
2022/03/29 04:50:12;;;;;;;29.30;19.63;;;8.10;99.90;;;;;;5033936;28;20229;-51
2022/03/29 04:52:44;;;;;;;35.87;20.87;;;8.10;99.90;;;;;;5033676;28;20226;-51
2022/03/29 04:55:13;;;;;;;30.83;20.77;;;8.00;99.90;;;;;;5033705;28;20632;-51
2022/03/29 04:57:42;;;;;;;35.97;21.37;;;8.00;99.90;;;;;;5033857;28;20683;-51
2022/03/29 05:00:12;;;;;;;28.53;19.60;;;8.00;99.90;;;;;;5045926;28;20733;-51
2022/03/29 05:02:41;;;;;;;34.13;20.93;;;8.00;99.90;;;;;;5053277;28;20627;-51
2022/03/29 05:05:11;;;;;;;33.23;20.33;;;8.00;99.90;;;;;;5053644;28;20213;-51
2022/03/29 05:07:40;;;;;;;36.43;22.03;;;8.10;99.90;;;;;;5053550;28;20638;-51
2022/03/29 05:10:09;;;;;;;33.37;21.80;;;8.10;99.90;;;;;;5053812;28;20278;-51
2022/03/29 05:12:40;;;;;;;34.40;22.33;;;8.10;99.90;;;;;;5053259;28;20278;-52
2022/03/29 05:15:09;;;;;;;38.63;22.90;;;8.10;99.90;;;;;;5053637;28;20205;-51
2022/03/29 05:17:38;;;;;;;38.70;21.40;;;8.10;99.90;;;;;;5053610;28;20263;-51
2022/03/29 05:20:08;;;;;;;41.00;22.03;;;8.20;99.90;;;;;;5053740;28;20279;-51
2022/03/29 05:22:43;;;;;;;36.50;21.60;;;8.10;99.90;;;;;;5052767;28;20666;-51
2022/03/29 05:25:12;;;;;;;41.37;23.37;;;8.10;99.90;;;;;;5053484;28;20198;-51
2022/03/29 05:27:40;;;;;;;38.80;24.93;;;8.10;99.90;;;;;;5052646;28;20236;-51
2022/03/29 05:30:09;;;;;;;46.63;21.63;;;8.10;99.90;;;;;;5051925;28;20723;-50
2022/03/29 05:32:38;;;;;;;37.33;22.10;;;8.20;99.90;;;;;;5052876;28;20221;-51
2022/03/29 05:35:08;;;;;;;33.40;20.67;;;8.20;99.90;;;;;;5052516;28;20240;-51
2022/03/29 05:37:36;;;;;;;36.37;22.20;;;8.10;99.90;;;;;;5053156;28;20202;-51
2022/03/29 05:40:08;;;;;;;34.63;22.33;;;8.20;99.90;;;;;;5053139;28;20615;-51
2022/03/29 05:42:38;;;;;;;34.67;21.40;;;8.20;99.90;;;;;;5052620;28;20255;-51
2022/03/29 05:45:06;;;;;;;35.60;23.50;;;8.30;99.90;;;;;;5053141;28;20259;-52
2022/03/29 05:50:21;;;;;;;30.73;22.27;;;8.30;99.90;;;;;;5052511;28;20190;-51
2022/03/29 05:52:49;;;;;;;35.13;21.50;;;8.40;99.90;;;;;;5052381;28;20229;-51
2022/03/29 05:55:18;;;;;;;32.33;21.43;;;8.50;99.90;;;;;;5052874;28;20240;-51
2022/03/29 05:57:49;;;;;;;32.90;21.63;;;8.50;99.90;;;;;;5052400;28;20245;-51
2022/03/29 06:00:18;;;;;;;30.17;20.63;;;8.50;99.90;;;;;;5052651;28;20241;-51
2022/03/29 06:02:46;;;;;;;30.87;21.93;;;8.60;99.90;;;;;;5052054;28;20588;-51
2022/03/29 06:05:14;;;;;;;38.43;23.93;;;8.60;99.90;;;;;;5052768;28;20205;-51
2022/03/29 06:07:42;;;;;;;37.83;24.90;;;8.70;99.90;;;;;;5052658;28;20271;-51
2022/03/29 06:10:11;;;;;;;36.20;24.13;;;8.70;99.90;;;;;;5052208;28;20763;-51
2022/03/29 06:12:41;;;;;;;46.27;26.17;;;8.80;99.90;;;;;;5051869;28;20252;-51
2022/03/29 06:15:10;;;;;;;41.17;25.00;;;8.90;99.90;;;;;;5052343;28;20278;-52
2022/03/29 06:17:39;;;;;;;46.70;28.67;;;8.90;99.90;;;;;;5052743;28;20745;-51
2022/03/29 06:20:09;;;;;;;40.40;26.50;;;8.90;99.90;;;;;;5052101;28;20768;-51
2022/03/29 06:22:43;;;;;;;43.83;29.20;;;9.00;99.90;;;;;;5052111;28;20202;-51
2022/03/29 06:25:12;;;;;;;45.67;30.70;;;9.10;99.90;;;;;;5052403;28;20622;-51
2022/03/29 06:27:42;;;;;;;47.73;31.13;;;9.20;99.90;;;;;;5051768;28;20717;-51
2022/03/29 06:30:12;;;;;;;41.60;29.63;;;9.20;99.90;;;;;;5050561;28;20237;-52
2022/03/29 06:32:48;;;;;;;42.70;29.70;;;9.20;99.90;;;;;;5031562;28;20226;-51
2022/03/29 06:35:19;;;;;;;44.47;29.73;;;9.20;99.90;;;;;;5031891;28;20209;-51
2022/03/29 06:37:47;;;;;;;43.23;30.37;;;9.30;99.90;;;;;;5032208;28;20214;-51
2022/03/29 06:40:15;;;;;;;45.70;30.20;;;9.30;99.90;;;;;;5032168;28;20206;-51
2022/03/29 06:42:44;;;;;;;45.13;29.07;;;9.40;99.90;;;;;;5038934;28;20553;-52
2022/03/29 06:45:13;;;;;;;42.77;28.77;;;9.50;99.90;;;;;;5051697;28;20209;-51
2022/03/29 06:47:41;;;;;;;44.17;28.93;;;9.60;99.90;;;;;;5051878;28;20207;-51
2022/03/29 06:50:10;;;;;;;46.53;29.57;;;9.60;99.90;;;;;;5051372;28;20237;-51
2022/03/29 06:52:39;;;;;;;42.37;27.77;;;9.60;99.90;;;;;;5050852;28;20780;-51
2022/03/29 06:55:10;;;;;;;39.43;28.13;;;9.70;99.90;;;;;;5051556;28;20227;-51
2022/03/29 06:57:38;;;;;;;42.27;28.00;;;9.80;99.90;;;;;;5051946;28;20193;-52
2022/03/29 07:00:10;;;;;;;40.90;28.23;;;9.90;99.90;;;;;;5050907;28;20234;-52
2022/03/29 07:02:39;;;;;;;41.33;26.33;;;9.90;99.90;;;;;;5049982;28;20271;-51
2022/03/29 07:05:08;;;;;;;39.17;27.73;;;10.00;99.90;;;;;;5051507;28;20276;-51
2022/03/29 07:07:37;;;;;;;39.00;26.90;;;10.00;99.90;;;;;;5051319;28;20210;-51
2022/03/29 07:12:53;;;;;;;39.63;26.47;;;10.20;99.90;;;;;;5050677;28;20225;-50
2022/03/29 07:15:25;;;;;;;37.53;25.40;;;10.30;99.90;;;;;;5051276;28;20220;-51
2022/03/29 07:17:54;;;;;;;37.90;25.40;;;10.40;99.90;;;;;;5051671;28;20224;-51
2022/03/29 07:20:23;;;;;;;35.73;26.37;;;10.50;99.90;;;;;;5050999;28;20560;-52
2022/03/29 07:22:53;;;;;;;37.80;25.20;;;10.60;99.90;;;;;;5050621;28;20734;-52
2022/03/29 07:25:22;;;;;;;36.10;26.30;;;10.60;99.90;;;;;;5050804;28;20209;-51
2022/03/29 07:27:52;;;;;;;37.63;26.73;;;10.60;99.90;;;;;;5050814;28;20629;-52
2022/03/29 07:30:21;;;;;;;38.63;27.17;;;10.70;99.90;;;;;;5049915;28;20201;-52
2022/03/29 07:32:54;;;;;;;37.47;27.00;;;10.70;99.90;;;;;;5050475;28;20289;-51
2022/03/29 07:35:24;;;;;;;35.77;26.67;;;10.80;99.90;;;;;;5051278;28;20186;-52
2022/03/29 07:37:52;;;;;;;38.90;25.73;;;10.80;99.90;;;;;;5050814;28;20282;-52
2022/03/29 07:40:23;;;;;;;35.43;26.27;;;10.90;99.90;;;;;;5050894;28;20736;-51
2022/03/29 07:42:51;;;;;;;39.40;26.57;;;11.00;99.90;;;;;;5050550;28;20259;-51
2022/03/29 07:45:20;;;;;;;41.23;30.00;;;11.10;99.90;;;;;;5051028;28;20201;-51
2022/03/29 07:47:52;;;;;;;36.73;26.17;;;11.10;99.90;;;;;;5051356;28;20224;-51
2022/03/29 07:50:40;;;;;;;39.07;25.93;;;11.20;99.90;;;;;;5049712;28;20564;-51
2022/03/29 07:53:09;;;;;;;39.50;27.60;;;11.40;99.90;;;;;;5050217;28;20762;-51
2022/03/29 07:55:40;;;;;;;41.33;29.57;;;11.50;99.90;;;;;;5050923;28;20645;-51
2022/03/29 07:58:16;;;;;;;36.20;26.57;;;11.50;99.90;;;;;;5045847;28;20638;-51
2022/03/29 08:00:46;;;;;;;38.30;28.57;;;11.50;99.90;;;;;;5048892;28;20214;-51
2022/03/29 08:03:17;;;;;;;37.80;26.77;;;11.60;99.90;;;;;;5049778;28;20194;-52
2022/03/29 08:05:47;;;;;;;37.03;26.60;;;11.70;99.90;;;;;;5050718;28;20197;-51
2022/03/29 08:08:16;;;;;;;37.00;26.50;;;11.70;99.90;;;;;;5050447;28;20213;-51
2022/03/29 08:10:46;;;;;;;37.87;26.93;;;11.80;99.90;;;;;;5050441;28;20259;-51
2022/03/29 08:13:15;;;;;;;38.40;26.33;;;11.80;99.90;;;;;;5051267;28;20217;-51
2022/03/29 08:15:47;;;;;;;33.10;25.30;;;12.00;99.90;;;;;;5054542;28;20205;-51
2022/03/29 08:18:17;;;;;;;38.23;26.03;;;11.80;99.90;;;;;;5054616;28;20232;-51
2022/03/29 08:20:47;;;;;;;34.40;25.23;;;11.80;99.90;;;;;;5055005;28;20212;-51
2022/03/29 08:23:15;;;;;;;34.97;25.40;;;12.00;99.90;;;;;;5054047;28;20225;-51
2022/03/29 08:25:44;;;;;;;36.27;25.77;;;12.00;99.90;;;;;;5046843;28;20210;-51
2022/03/29 08:28:14;;;;;;;35.50;25.13;;;12.00;99.90;;;;;;5040695;28;20282;-51
2022/03/29 08:30:42;;;;;;;33.53;24.47;;;12.00;99.90;;;;;;5054795;28;20217;-50
2022/03/29 08:33:11;;;;;;;32.53;23.47;;;12.10;99.90;;;;;;5054455;28;20225;-50
2022/03/29 08:35:44;;;;;;;31.83;22.93;;;12.20;99.90;;;;;;5054382;28;20206;-51
2022/03/29 08:38:12;;;;;;;41.03;23.33;;;12.30;99.90;;;;;;5052289;28;20233;-51
2022/03/29 08:40:57;;;;;;;35.47;23.93;;;12.50;99.90;;;;;;5036036;28;20213;-51
2022/03/29 08:43:27;;;;;;;38.00;25.27;;;12.70;99.90;;;;;;5047134;28;20225;-50
2022/03/29 08:45:57;;;;;;;36.03;25.47;;;12.70;99.90;;;;;;5054034;28;20244;-51
2022/03/29 08:48:26;;;;;;;33.23;24.33;;;12.70;99.90;;;;;;5052702;28;20225;-51
2022/03/29 08:50:59;;;;;;;33.20;23.30;;;12.60;99.90;;;;;;5053643;28;20259;-51
2022/03/29 08:53:48;;;;;;;33.10;24.80;;;12.70;99.90;;;;;;5053783;28;20333;-51
2022/03/29 08:56:18;;;;;;;31.97;23.13;;;12.70;99.90;;;;;;5054148;28;20194;-51
2022/03/29 08:58:46;;;;;;;34.90;23.87;;;12.80;99.90;;;;;;5053649;28;20232;-51
2022/03/29 09:01:19;;;;;;;33.23;23.80;;;13.00;99.90;;;;;;5053902;28;20674;-51
2022/03/29 09:03:47;;;;;;;33.80;24.20;;;13.00;99.90;;;;;;5053378;28;20210;-51
2022/03/29 09:06:17;;;;;;;31.40;23.13;;;13.10;99.90;;;;;;5053871;28;20237;-51
2022/03/29 09:08:47;;;;;;;28.93;20.53;;;13.20;99.90;;;;;;5052315;28;20221;-51
2022/03/29 09:11:16;;;;;;;29.30;21.30;;;13.20;99.90;;;;;;5054134;28;20202;-51
2022/03/29 09:13:44;;;;;;;28.67;20.47;;;13.20;99.90;;;;;;5052956;28;20750;-51
2022/03/29 09:16:29;;;;;;;26.47;19.43;;;13.30;99.90;;;;;;5054147;28;20201;-51
2022/03/29 09:18:58;;;;;;;30.30;20.43;;;13.40;99.90;;;;;;5053658;28;20295;-51
2022/03/29 09:21:28;;;;;;;27.17;20.23;;;13.50;99.90;;;;;;5053448;28;20255;-51
2022/03/29 09:24:07;;;;;;;28.67;21.27;;;13.60;99.90;;;;;;5052181;28;20710;-51
2022/03/29 09:26:39;;;;;;;27.53;20.57;;;13.60;99.90;;;;;;5053652;28;20219;-51
2022/03/29 09:29:18;;;;;;;28.33;20.40;;;13.70;99.90;;;;;;5052742;28;20321;-51
2022/03/29 09:31:49;;;;;;;26.40;19.27;;;13.70;99.90;;;;;;5052632;28;20263;-51
2022/03/29 09:34:19;;;;;;;23.33;17.67;;;13.80;99.90;;;;;;5053181;28;20624;-51
2022/03/29 09:36:50;;;;;;;21.57;16.87;;;13.90;99.90;;;;;;5053384;28;20263;-51
2022/03/29 09:39:39;;;;;;;24.43;18.67;;;13.90;99.90;;;;;;5047087;28;20287;-51
2022/03/29 09:42:11;;;;;;;23.87;17.60;;;14.00;99.90;;;;;;5034977;28;20205;-51
2022/03/29 09:44:42;;;;;;;22.17;16.63;;;14.10;99.90;;;;;;5040339;28;20635;-50
2022/03/29 09:47:13;;;;;;;24.27;17.80;;;14.00;99.90;;;;;;5033253;28;20248;-50
2022/03/29 09:49:58;;;;;;;25.57;19.20;;;14.10;99.90;;;;;;5033019;28;20233;-51
2022/03/29 09:52:30;;;;;;;33.37;21.10;;;14.20;99.90;;;;;;5032999;28;20672;-53
2022/03/29 09:55:07;;;;;;;23.10;18.03;;;14.30;99.90;;;;;;5036058;28;20230;-52
2022/03/29 09:57:37;;;;;;;23.67;17.70;;;14.40;99.90;;;;;;5032883;28;20209;-51
2022/03/29 10:00:08;;;;;;;26.13;17.07;;;14.40;99.90;;;;;;5043465;28;20251;-52
2022/03/29 10:02:38;;;;;;;21.53;16.83;;;14.50;99.90;;;;;;5052115;28;20193;-51
2022/03/29 10:05:07;;;;;;;24.10;16.63;;;14.60;99.90;;;;;;5052282;28;20206;-51
2022/03/29 10:07:45;;;;;;;23.40;17.20;;;14.80;99.90;;;;;;5051132;28;20202;-51
2022/03/29 10:10:13;;;;;;;23.73;16.00;;;14.80;99.90;;;;;;5052533;28;20222;-51
2022/03/29 10:12:42;;;;;;;21.53;16.27;;;14.80;99.90;;;;;;5051595;28;20261;-51
2022/03/29 10:15:30;;;;;;;22.70;16.53;;;14.80;99.90;;;;;;5032213;28;20281;-51
2022/03/29 10:17:59;;;;;;;24.43;17.17;;;14.90;99.90;;;;;;5032692;28;20248;-51
2022/03/29 10:20:28;;;;;;;21.25;15.57;;;15.00;99.90;;;;;;5039224;28;20269;-51
2022/03/29 10:22:59;;;;;;;19.88;15.13;;;15.00;99.90;;;;;;5051500;28;20228;-51
2022/03/29 10:25:29;;;;;;;19.88;15.45;;;15.10;99.90;;;;;;5052252;28;20807;-52
2022/03/29 10:27:59;;;;;;;20.05;16.05;;;14.80;99.90;;;;;;5051704;28;20205;-51
2022/03/29 10:30:34;;;;;;;25.90;17.35;;;14.90;99.90;;;;;;5051873;28;20209;-51
2022/03/29 10:33:23;;;;;;;22.98;16.20;;;14.90;99.90;;;;;;5051907;28;20189;-52
2022/03/29 10:36:09;;;;;;;19.92;15.90;;;15.00;99.90;;;;;;5051776;28;20233;-51
2022/03/29 10:39:00;;;;;;;21.08;15.48;;;14.90;99.90;;;;;;5051843;28;20228;-52
2022/03/29 10:41:50;;;;;;;21.90;15.50;;;14.90;99.90;;;;;;5051355;28;20290;-52
2022/03/29 10:44:20;;;;;;;21.65;16.20;;;15.10;99.90;;;;;;5040707;28;20198;-51
2022/03/29 10:46:50;;;;;;;22.70;16.15;;;15.10;99.90;;;;;;5028976;28;20207;-52
2022/03/29 10:49:24;;;;;;;19.98;15.63;;;15.10;99.90;;;;;;5031174;28;20317;-51
2022/03/29 10:51:54;;;;;;;20.43;15.77;;;15.20;99.90;;;;;;5030713;28;20202;-51
2022/03/29 10:54:33;;;;;;;22.70;16.33;;;15.20;99.90;;;;;;5047093;28;20659;-51
2022/03/29 10:57:03;;;;;;;22.35;15.98;;;15.30;99.90;;;;;;5051082;28;20205;-52
2022/03/29 10:59:32;;;;;;;21.98;15.88;;;15.30;99.90;;;;;;5051550;28;20225;-50
2022/03/29 11:02:20;;;;;;;22.02;16.05;;;15.40;99.90;;;;;;5050180;28;20259;-52
2022/03/29 11:05:06;;;;;;;23.23;16.23;;;15.40;99.90;;;;;;5050255;28;20267;-51
2022/03/29 11:07:35;;;;;;;21.42;16.23;;;15.50;99.90;;;;;;5050073;28;20201;-51
2022/03/29 11:10:11;;;;;;;20.50;15.70;;;15.50;99.90;;;;;;5051613;28;20275;-52
2022/03/29 11:12:49;;;;;;;24.42;16.77;;;15.40;99.90;;;;;;5049890;28;20223;-51
2022/03/29 11:15:48;;;;;;;21.77;16.40;;;15.50;99.90;;;;;;5030718;28;20218;-52
2022/03/29 11:18:50;;;;;;;20.98;16.58;;;15.50;99.90;;;;;;5033558;28;20225;-51
2022/03/29 11:21:41;;;;;;;21.45;15.45;;;15.50;99.90;;;;;;5052518;28;20211;-52
2022/03/29 11:24:13;;;;;;;22.10;15.88;;;15.60;99.90;;;;;;5070414;28;20189;-50
2022/03/29 11:26:58;;;;;;;19.02;15.32;;;15.60;99.90;;;;;;5071040;28;20708;-52
2022/03/29 11:29:26;;;;;;;21.02;15.32;;;15.50;99.90;;;;;;5070674;28;20256;-51
2022/03/29 11:31:56;;;;;;;19.67;15.27;;;15.60;99.90;;;;;;5056235;28;20244;-52
2022/03/29 11:34:38;;;;;;;20.45;16.17;;;15.70;99.90;;;;;;5049542;28;20193;-52
2022/03/29 11:37:07;;;;;;;18.35;14.35;;;15.70;99.90;;;;;;5037571;28;20202;-52
2022/03/29 11:39:36;;;;;;;23.02;16.02;;;15.80;99.90;;;;;;5039684;28;20234;-51
2022/03/29 11:42:06;;;;;;;19.38;15.60;;;15.60;99.90;;;;;;5030606;28;20229;-51
2022/03/29 11:44:34;;;;;;;20.45;15.55;;;15.70;99.90;;;;;;5042912;28;20210;-52
2022/03/29 11:47:02;;;;;;;23.80;15.75;;;15.90;99.90;;;;;;5050069;28;20198;-52
2022/03/29 11:49:40;;;;;;;19.38;15.23;;;16.10;99.90;;;;;;5050624;28;20229;-52
2022/03/29 11:52:11;;;;;;;20.90;15.30;;;16.20;99.90;;;;;;5050262;28;20255;-51
2022/03/29 11:54:44;;;;;;;19.92;14.65;;;16.30;99.90;;;;;;5050696;28;20189;-51
2022/03/29 11:57:22;;;;;;;20.27;15.20;;;16.30;99.90;;;;;;5050638;28;20205;-51
2022/03/29 11:59:50;;;;;;;19.35;14.85;;;16.10;99.90;;;;;;5050312;28;20291;-52
2022/03/29 12:02:25;;;;;;;21.27;15.35;;;16.00;99.90;;;;;;5050266;28;20193;-51
2022/03/29 12:04:54;;;;;;;22.00;16.33;;;16.00;99.90;;;;;;5050541;28;20205;-51
2022/03/29 12:07:37;;;;;;;23.17;16.20;;;16.00;99.90;;;;;;5050939;28;20267;-51
2022/03/29 12:10:06;;;;;;;21.00;15.63;;;16.20;99.90;;;;;;5046892;28;20221;-51
2022/03/29 12:12:36;;;;;;;22.02;15.70;;;16.20;99.90;;;;;;5033534;28;20210;-51
2022/03/29 12:15:06;;;;;;;24.60;16.33;;;16.30;99.90;;;;;;5030308;28;20209;-51
2022/03/29 12:17:34;;;;;;;21.17;15.57;;;16.40;99.90;;;;;;5030187;28;20775;-52
2022/03/29 12:20:03;;;;;;;19.83;15.20;;;16.30;99.90;;;;;;5033135;28;20221;-51
2022/03/29 12:22:31;;;;;;;20.30;15.10;;;16.30;99.90;;;;;;5048886;28;20201;-52
2022/03/29 12:25:00;;;;;;;20.05;15.98;;;16.40;99.90;;;;;;5035020;28;20711;-52
2022/03/29 12:27:28;;;;;;;20.05;15.60;;;16.50;99.90;;;;;;5030280;28;20648;-53
2022/03/29 12:30:01;;;;;;;21.58;15.57;;;16.50;99.90;;;;;;5029313;28;20230;-52
2022/03/29 12:32:30;;;;;;;20.42;15.75;;;16.50;99.90;;;;;;5029591;28;20730;-52
2022/03/29 12:35:01;;;;;;;19.08;14.68;;;16.70;99.90;;;;;;5029478;28;20209;-52
2022/03/29 12:37:30;;;;;;;19.85;15.80;;;16.60;99.90;;;;;;5030593;28;20568;-52
2022/03/29 12:40:04;;;;;;;20.52;16.02;;;16.60;99.90;;;;;;5029008;28;20499;-52
2022/03/29 12:42:34;;;;;;;20.73;16.17;;;16.60;99.90;;;;;;5029605;28;20190;-52
2022/03/29 12:45:07;;;;;;;19.55;15.05;;;16.60;99.90;;;;;;5045598;28;20202;-52
2022/03/29 12:47:36;;;;;;;22.17;16.45;;;16.60;99.90;;;;;;5050323;28;20190;-52
2022/03/29 12:50:06;;;;;;;19.58;15.43;;;16.70;99.90;;;;;;5043162;28;20264;-52
2022/03/29 12:52:41;;;;;;;20.52;15.70;;;16.60;99.90;;;;;;5029052;28;20191;-52
2022/03/29 12:55:14;;;;;;;21.95;15.23;;;16.70;99.90;;;;;;5029767;28;20201;-52
2022/03/29 12:57:43;;;;;;;20.92;15.10;;;16.70;99.90;;;;;;5035059;28;20639;-52
2022/03/29 13:00:15;;;;;;;21.50;15.98;;;16.70;99.90;;;;;;5053245;28;20222;-52